sensor_id;sensor_type;location;lat;lon;timestamp;temperature;humidity
4643;DHT22;2334;48.710;9.622;2023-02-28T00:01:47;-1.50;99.90
4643;DHT22;2334;48.710;9.622;2023-02-28T00:04:14;-1.50;99.90
4643;DHT22;2334;48.710;9.622;2023-02-28T00:06:40;-1.50;99.90
4643;DHT22;2334;48.710;9.622;2023-02-28T00:09:08;-1.40;99.90
4643;DHT22;2334;48.710;9.622;2023-02-28T00:11:34;-1.40;99.90
4643;DHT22;2334;48.710;9.622;2023-02-28T00:14:04;-1.40;99.90
4643;DHT22;2334;48.710;9.622;2023-02-28T00:16:31;-1.40;99.90
4643;DHT22;2334;48.710;9.622;2023-02-28T00:18:58;-1.40;99.90
4643;DHT22;2334;48.710;9.622;2023-02-28T00:21:25;-1.40;99.90
4643;DHT22;2334;48.710;9.622;2023-02-28T00:23:52;-1.40;99.90
4643;DHT22;2334;48.710;9.622;2023-02-28T00:26:19;-1.40;99.90
4643;DHT22;2334;48.710;9.622;2023-02-28T00:28:46;-1.40;99.90
4643;DHT22;2334;48.710;9.622;2023-02-28T00:31:15;-1.30;99.90
4643;DHT22;2334;48.710;9.622;2023-02-28T00:33:42;-1.30;99.90
4643;DHT22;2334;48.710;9.622;2023-02-28T00:36:10;-1.30;99.90
4643;DHT22;2334;48.710;9.622;2023-02-28T00:38:38;-1.30;99.90
4643;DHT22;2334;48.710;9.622;2023-02-28T00:41:05;-1.30;99.90
4643;DHT22;2334;48.710;9.622;2023-02-28T00:43:33;-1.30;99.90
4643;DHT22;2334;48.710;9.622;2023-02-28T00:46:01;-1.30;99.90
4643;DHT22;2334;48.710;9.622;2023-02-28T00:48:30;-1.30;99.90
4643;DHT22;2334;48.710;9.622;2023-02-28T00:50:57;-1.30;99.90
4643;DHT22;2334;48.710;9.622;2023-02-28T00:53:23;-1.30;99.90
4643;DHT22;2334;48.710;9.622;2023-02-28T00:55:51;-1.30;99.90
4643;DHT22;2334;48.710;9.622;2023-02-28T00:58:20;-1.30;99.90
4643;DHT22;2334;48.710;9.622;2023-02-28T01:00:47;-1.30;99.90
4643;DHT22;2334;48.710;9.622;2023-02-28T01:03:14;-1.30;99.90
4643;DHT22;2334;48.710;9.622;2023-02-28T01:05:43;-1.30;99.90
4643;DHT22;2334;48.710;9.622;2023-02-28T01:08:10;-1.30;99.90
4643;DHT22;2334;48.710;9.622;2023-02-28T01:10:37;-1.30;99.90
4643;DHT22;2334;48.710;9.622;2023-02-28T01:13:04;-1.30;99.90
4643;DHT22;2334;48.710;9.622;2023-02-28T01:15:31;-1.30;99.90
4643;DHT22;2334;48.710;9.622;2023-02-28T01:17:58;-1.30;99.90
4643;DHT22;2334;48.710;9.622;2023-02-28T01:20:25;-1.40;99.90
4643;DHT22;2334;48.710;9.622;2023-02-28T01:22:53;-1.40;99.90
4643;DHT22;2334;48.710;9.622;2023-02-28T01:25:20;-1.30;99.90
4643;DHT22;2334;48.710;9.622;2023-02-28T01:27:47;-1.40;99.90
4643;DHT22;2334;48.710;9.622;2023-02-28T01:30:14;-1.30;99.90
4643;DHT22;2334;48.710;9.622;2023-02-28T01:32:40;-1.40;99.90
4643;DHT22;2334;48.710;9.622;2023-02-28T01:35:08;-1.40;99.90
4643;DHT22;2334;48.710;9.622;2023-02-28T01:37:35;-1.40;99.90
4643;DHT22;2334;48.710;9.622;2023-02-28T01:40:04;-1.40;99.90
4643;DHT22;2334;48.710;9.622;2023-02-28T01:42:31;-1.40;99.90
4643;DHT22;2334;48.710;9.622;2023-02-28T01:45:01;-1.40;99.90
4643;DHT22;2334;48.710;9.622;2023-02-28T01:47:32;-1.40;99.90
4643;DHT22;2334;48.710;9.622;2023-02-28T01:50:04;-1.40;99.90
4643;DHT22;2334;48.710;9.622;2023-02-28T01:52:32;-1.40;99.90
4643;DHT22;2334;48.710;9.622;2023-02-28T01:55:00;-1.40;99.90
4643;DHT22;2334;48.710;9.622;2023-02-28T01:57:33;-1.40;99.90
4643;DHT22;2334;48.710;9.622;2023-02-28T02:00:05;-1.40;99.90
4643;DHT22;2334;48.710;9.622;2023-02-28T02:02:36;-1.50;99.90
4643;DHT22;2334;48.710;9.622;2023-02-28T02:05:06;-1.50;99.90
4643;DHT22;2334;48.710;9.622;2023-02-28T02:07:35;-1.50;99.90
4643;DHT22;2334;48.710;9.622;2023-02-28T02:10:06;-1.50;99.90
4643;DHT22;2334;48.710;9.622;2023-02-28T02:12:51;-1.50;99.90
4643;DHT22;2334;48.710;9.622;2023-02-28T02:15:26;-1.50;99.90
4643;DHT22;2334;48.710;9.622;2023-02-28T02:17:58;-1.50;99.90
4643;DHT22;2334;48.710;9.622;2023-02-28T02:23:44;-1.50;99.90
4643;DHT22;2334;48.710;9.622;2023-02-28T02:26:39;-1.50;99.90
4643;DHT22;2334;48.710;9.622;2023-02-28T02:32:22;-1.40;99.90
4643;DHT22;2334;48.710;9.622;2023-02-28T02:35:04;-1.40;99.90
4643;DHT22;2334;48.710;9.622;2023-02-28T02:37:40;-1.50;99.90
4643;DHT22;2334;48.710;9.622;2023-02-28T02:40:12;-1.50;99.90
4643;DHT22;2334;48.710;9.622;2023-02-28T02:42:45;-1.50;99.90
4643;DHT22;2334;48.710;9.622;2023-02-28T02:45:17;-1.50;99.90
4643;DHT22;2334;48.710;9.622;2023-02-28T02:47:46;-1.50;99.90
4643;DHT22;2334;48.710;9.622;2023-02-28T02:50:19;-1.50;99.90
4643;DHT22;2334;48.710;9.622;2023-02-28T02:52:51;-1.50;99.90
4643;DHT22;2334;48.710;9.622;2023-02-28T02:55:19;-1.50;99.90
4643;DHT22;2334;48.710;9.622;2023-02-28T02:57:49;-1.50;99.90
4643;DHT22;2334;48.710;9.622;2023-02-28T03:00:21;-1.50;99.90
4643;DHT22;2334;48.710;9.622;2023-02-28T03:02:49;-1.50;99.90
4643;DHT22;2334;48.710;9.622;2023-02-28T03:05:23;-1.50;99.90
4643;DHT22;2334;48.710;9.622;2023-02-28T03:07:50;-1.50;99.90
4643;DHT22;2334;48.710;9.622;2023-02-28T03:10:38;-1.50;99.90
4643;DHT22;2334;48.710;9.622;2023-02-28T03:13:15;-1.50;99.90
4643;DHT22;2334;48.710;9.622;2023-02-28T03:15:56;-1.40;99.90
4643;DHT22;2334;48.710;9.622;2023-02-28T03:18:32;-1.40;99.90
4643;DHT22;2334;48.710;9.622;2023-02-28T03:21:09;-1.40;99.90
4643;DHT22;2334;48.710;9.622;2023-02-28T03:23:47;-1.40;99.90
4643;DHT22;2334;48.710;9.622;2023-02-28T03:26:19;-1.40;99.90
4643;DHT22;2334;48.710;9.622;2023-02-28T03:28:53;-1.40;99.90
4643;DHT22;2334;48.710;9.622;2023-02-28T03:31:27;-1.40;99.90
4643;DHT22;2334;48.710;9.622;2023-02-28T03:34:03;-1.40;99.90
4643;DHT22;2334;48.710;9.622;2023-02-28T03:36:37;-1.40;99.90
4643;DHT22;2334;48.710;9.622;2023-02-28T03:39:11;-1.40;99.90
4643;DHT22;2334;48.710;9.622;2023-02-28T03:41:44;-1.40;99.90
4643;DHT22;2334;48.710;9.622;2023-02-28T03:44:17;-1.30;99.90
4643;DHT22;2334;48.710;9.622;2023-02-28T03:46:48;-1.30;99.90
4643;DHT22;2334;48.710;9.622;2023-02-28T03:49:18;-1.30;99.90
4643;DHT22;2334;48.710;9.622;2023-02-28T03:51:49;-1.30;99.90
4643;DHT22;2334;48.710;9.622;2023-02-28T03:54:20;-1.30;99.90
4643;DHT22;2334;48.710;9.622;2023-02-28T03:56:53;-1.30;99.90
4643;DHT22;2334;48.710;9.622;2023-02-28T03:59:27;-1.30;99.90
4643;DHT22;2334;48.710;9.622;2023-02-28T04:01:54;-1.30;99.90
4643;DHT22;2334;48.710;9.622;2023-02-28T04:04:23;-1.30;99.90
4643;DHT22;2334;48.710;9.622;2023-02-28T04:06:53;-1.30;99.90
4643;DHT22;2334;48.710;9.622;2023-02-28T04:09:27;-1.30;99.90
4643;DHT22;2334;48.710;9.622;2023-02-28T04:11:56;-1.30;99.90
4643;DHT22;2334;48.710;9.622;2023-02-28T04:14:23;-1.30;99.90
4643;DHT22;2334;48.710;9.622;2023-02-28T04:16:50;-1.20;99.90
4643;DHT22;2334;48.710;9.622;2023-02-28T04:19:18;-1.20;99.90
4643;DHT22;2334;48.710;9.622;2023-02-28T04:21:48;-1.20;99.90
4643;DHT22;2334;48.710;9.622;2023-02-28T04:24:19;-1.20;99.90
4643;DHT22;2334;48.710;9.622;2023-02-28T04:26:47;-1.20;99.90
4643;DHT22;2334;48.710;9.622;2023-02-28T04:29:19;-1.30;99.90
4643;DHT22;2334;48.710;9.622;2023-02-28T04:31:46;-1.20;99.90
4643;DHT22;2334;48.710;9.622;2023-02-28T04:34:13;-1.20;99.90
4643;DHT22;2334;48.710;9.622;2023-02-28T04:36:40;-1.20;99.90
4643;DHT22;2334;48.710;9.622;2023-02-28T04:39:07;-1.20;99.90
4643;DHT22;2334;48.710;9.622;2023-02-28T04:41:36;-1.20;99.90
4643;DHT22;2334;48.710;9.622;2023-02-28T04:44:03;-1.20;99.90
4643;DHT22;2334;48.710;9.622;2023-02-28T04:46:30;-1.20;99.90
4643;DHT22;2334;48.710;9.622;2023-02-28T04:48:57;-1.10;99.90
4643;DHT22;2334;48.710;9.622;2023-02-28T04:51:24;-1.10;99.90
4643;DHT22;2334;48.710;9.622;2023-02-28T04:53:52;-1.10;99.90
4643;DHT22;2334;48.710;9.622;2023-02-28T04:56:19;-1.10;99.90
4643;DHT22;2334;48.710;9.622;2023-02-28T04:58:47;-1.10;99.90
4643;DHT22;2334;48.710;9.622;2023-02-28T05:01:20;-1.20;99.90
4643;DHT22;2334;48.710;9.622;2023-02-28T05:03:48;-1.10;99.90
4643;DHT22;2334;48.710;9.622;2023-02-28T05:06:16;-1.20;99.90
4643;DHT22;2334;48.710;9.622;2023-02-28T05:08:43;-1.10;99.90
4643;DHT22;2334;48.710;9.622;2023-02-28T05:11:15;-1.10;99.90
4643;DHT22;2334;48.710;9.622;2023-02-28T05:13:42;-1.10;99.90
4643;DHT22;2334;48.710;9.622;2023-02-28T05:16:10;-1.10;99.90
4643;DHT22;2334;48.710;9.622;2023-02-28T05:18:37;-1.10;99.90
4643;DHT22;2334;48.710;9.622;2023-02-28T05:21:15;-1.10;99.90
4643;DHT22;2334;48.710;9.622;2023-02-28T05:23:49;-1.10;99.90
4643;DHT22;2334;48.710;9.622;2023-02-28T05:26:16;-1.20;99.90
4643;DHT22;2334;48.710;9.622;2023-02-28T05:28:42;-1.10;99.90
4643;DHT22;2334;48.710;9.622;2023-02-28T05:31:11;-1.10;99.90
4643;DHT22;2334;48.710;9.622;2023-02-28T05:33:38;-1.10;99.90
4643;DHT22;2334;48.710;9.622;2023-02-28T05:36:06;-1.10;99.90
4643;DHT22;2334;48.710;9.622;2023-02-28T05:38:33;-1.10;99.90
4643;DHT22;2334;48.710;9.622;2023-02-28T05:41:04;-1.10;99.90
4643;DHT22;2334;48.710;9.622;2023-02-28T05:43:31;-1.10;99.90
4643;DHT22;2334;48.710;9.622;2023-02-28T05:45:57;-1.10;99.90
4643;DHT22;2334;48.710;9.622;2023-02-28T05:48:26;-1.10;99.90
4643;DHT22;2334;48.710;9.622;2023-02-28T05:50:52;-1.10;99.90
4643;DHT22;2334;48.710;9.622;2023-02-28T05:53:20;-1.10;99.90
4643;DHT22;2334;48.710;9.622;2023-02-28T05:55:47;-1.00;99.90
4643;DHT22;2334;48.710;9.622;2023-02-28T05:58:14;-1.10;99.90
4643;DHT22;2334;48.710;9.622;2023-02-28T06:00:40;-1.10;99.90
4643;DHT22;2334;48.710;9.622;2023-02-28T06:03:07;-1.10;99.90
4643;DHT22;2334;48.710;9.622;2023-02-28T06:05:35;-1.10;99.90
4643;DHT22;2334;48.710;9.622;2023-02-28T06:08:04;-1.00;99.90
4643;DHT22;2334;48.710;9.622;2023-02-28T06:10:32;-1.00;99.90
4643;DHT22;2334;48.710;9.622;2023-02-28T06:12:59;-1.00;99.90
4643;DHT22;2334;48.710;9.622;2023-02-28T06:15:28;-1.00;99.90
4643;DHT22;2334;48.710;9.622;2023-02-28T06:17:56;-1.00;99.90
4643;DHT22;2334;48.710;9.622;2023-02-28T06:20:25;-1.00;99.90
4643;DHT22;2334;48.710;9.622;2023-02-28T06:22:56;-1.00;99.90
4643;DHT22;2334;48.710;9.622;2023-02-28T06:25:24;-1.00;99.90
4643;DHT22;2334;48.710;9.622;2023-02-28T06:27:51;-1.00;99.90
4643;DHT22;2334;48.710;9.622;2023-02-28T06:30:18;-1.00;99.90
4643;DHT22;2334;48.710;9.622;2023-02-28T06:32:49;-1.00;99.90
4643;DHT22;2334;48.710;9.622;2023-02-28T06:35:16;-1.00;99.90
4643;DHT22;2334;48.710;9.622;2023-02-28T06:37:43;-1.00;99.90
4643;DHT22;2334;48.710;9.622;2023-02-28T06:40:12;-1.00;99.90
4643;DHT22;2334;48.710;9.622;2023-02-28T06:42:39;-0.90;99.90
4643;DHT22;2334;48.710;9.622;2023-02-28T06:45:07;-0.90;99.90
4643;DHT22;2334;48.710;9.622;2023-02-28T06:47:36;-0.90;99.90
4643;DHT22;2334;48.710;9.622;2023-02-28T06:50:04;-0.90;99.90
4643;DHT22;2334;48.710;9.622;2023-02-28T06:52:31;-0.90;99.90
4643;DHT22;2334;48.710;9.622;2023-02-28T06:54:58;-0.80;99.90
4643;DHT22;2334;48.710;9.622;2023-02-28T06:57:29;-0.90;99.90
4643;DHT22;2334;48.710;9.622;2023-02-28T06:59:57;-0.80;99.90
4643;DHT22;2334;48.710;9.622;2023-02-28T07:02:25;-0.80;99.90
4643;DHT22;2334;48.710;9.622;2023-02-28T07:04:52;-0.60;99.90
4643;DHT22;2334;48.710;9.622;2023-02-28T07:07:19;-0.60;99.90
4643;DHT22;2334;48.710;9.622;2023-02-28T07:09:45;-0.60;99.90
4643;DHT22;2334;48.710;9.622;2023-02-28T07:12:12;-0.60;99.90
4643;DHT22;2334;48.710;9.622;2023-02-28T07:14:41;-0.50;99.90
4643;DHT22;2334;48.710;9.622;2023-02-28T07:17:08;-0.50;99.90
4643;DHT22;2334;48.710;9.622;2023-02-28T07:19:37;-0.40;99.90
4643;DHT22;2334;48.710;9.622;2023-02-28T07:22:04;-0.40;99.90
4643;DHT22;2334;48.710;9.622;2023-02-28T07:24:31;-0.40;99.90
4643;DHT22;2334;48.710;9.622;2023-02-28T07:26:58;-0.40;99.90
4643;DHT22;2334;48.710;9.622;2023-02-28T07:29:26;-0.40;99.90
4643;DHT22;2334;48.710;9.622;2023-02-28T07:31:54;-0.30;99.90
4643;DHT22;2334;48.710;9.622;2023-02-28T07:34:22;-0.30;99.90
4643;DHT22;2334;48.710;9.622;2023-02-28T07:36:51;-0.30;99.90
4643;DHT22;2334;48.710;9.622;2023-02-28T07:39:19;-0.30;99.90
4643;DHT22;2334;48.710;9.622;2023-02-28T07:41:46;-0.20;99.90
4643;DHT22;2334;48.710;9.622;2023-02-28T07:44:13;-0.20;99.90
4643;DHT22;2334;48.710;9.622;2023-02-28T07:46:40;-0.20;99.90
4643;DHT22;2334;48.710;9.622;2023-02-28T07:49:08;-0.20;99.90
4643;DHT22;2334;48.710;9.622;2023-02-28T07:51:35;-0.20;99.90
4643;DHT22;2334;48.710;9.622;2023-02-28T07:54:03;-0.20;99.90
4643;DHT22;2334;48.710;9.622;2023-02-28T07:56:30;-0.20;99.90
4643;DHT22;2334;48.710;9.622;2023-02-28T07:58:57;-0.10;99.90
4643;DHT22;2334;48.710;9.622;2023-02-28T08:01:24;-0.20;99.90
4643;DHT22;2334;48.710;9.622;2023-02-28T08:03:50;-0.10;99.90
4643;DHT22;2334;48.710;9.622;2023-02-28T08:06:21;-0.10;99.90
4643;DHT22;2334;48.710;9.622;2023-02-28T08:08:51;-0.10;99.90
4643;DHT22;2334;48.710;9.622;2023-02-28T08:11:18;0.00;99.90
4643;DHT22;2334;48.710;9.622;2023-02-28T08:13:45;0.00;99.90
4643;DHT22;2334;48.710;9.622;2023-02-28T08:16:18;0.00;99.90
4643;DHT22;2334;48.710;9.622;2023-02-28T08:18:48;0.10;99.90
4643;DHT22;2334;48.710;9.622;2023-02-28T08:21:16;0.10;99.90
4643;DHT22;2334;48.710;9.622;2023-02-28T08:23:45;0.10;99.90
4643;DHT22;2334;48.710;9.622;2023-02-28T08:26:12;0.00;99.90
4643;DHT22;2334;48.710;9.622;2023-02-28T08:28:39;0.00;99.90
4643;DHT22;2334;48.710;9.622;2023-02-28T08:31:11;0.10;99.90
4643;DHT22;2334;48.710;9.622;2023-02-28T08:33:39;0.10;99.90
4643;DHT22;2334;48.710;9.622;2023-02-28T08:36:08;0.20;99.90
4643;DHT22;2334;48.710;9.622;2023-02-28T08:38:35;0.20;99.90
4643;DHT22;2334;48.710;9.622;2023-02-28T08:41:07;0.20;99.90
4643;DHT22;2334;48.710;9.622;2023-02-28T08:43:34;0.20;99.90
4643;DHT22;2334;48.710;9.622;2023-02-28T08:46:02;0.20;99.90
4643;DHT22;2334;48.710;9.622;2023-02-28T08:48:31;0.20;99.90
4643;DHT22;2334;48.710;9.622;2023-02-28T08:51:00;0.30;99.90
4643;DHT22;2334;48.710;9.622;2023-02-28T08:53:27;0.30;99.90
4643;DHT22;2334;48.710;9.622;2023-02-28T08:55:58;0.40;99.90
4643;DHT22;2334;48.710;9.622;2023-02-28T08:58:27;0.40;99.90
4643;DHT22;2334;48.710;9.622;2023-02-28T09:00:54;0.50;99.90
4643;DHT22;2334;48.710;9.622;2023-02-28T09:03:22;0.50;99.90
4643;DHT22;2334;48.710;9.622;2023-02-28T09:05:55;0.50;99.90
4643;DHT22;2334;48.710;9.622;2023-02-28T09:08:23;0.60;99.90
4643;DHT22;2334;48.710;9.622;2023-02-28T09:10:51;0.60;99.90
4643;DHT22;2334;48.710;9.622;2023-02-28T09:13:22;0.60;99.90
4643;DHT22;2334;48.710;9.622;2023-02-28T09:15:51;0.70;99.90
4643;DHT22;2334;48.710;9.622;2023-02-28T09:18:19;0.70;99.90
4643;DHT22;2334;48.710;9.622;2023-02-28T09:20:50;0.70;99.90
4643;DHT22;2334;48.710;9.622;2023-02-28T09:23:17;0.70;99.90
4643;DHT22;2334;48.710;9.622;2023-02-28T09:25:48;0.80;99.90
4643;DHT22;2334;48.710;9.622;2023-02-28T09:28:16;0.80;99.90
4643;DHT22;2334;48.710;9.622;2023-02-28T09:30:45;0.80;99.90
4643;DHT22;2334;48.710;9.622;2023-02-28T09:33:14;0.90;99.90
4643;DHT22;2334;48.710;9.622;2023-02-28T09:35:42;1.00;99.90
4643;DHT22;2334;48.710;9.622;2023-02-28T09:38:09;1.00;99.90
4643;DHT22;2334;48.710;9.622;2023-02-28T09:40:39;1.10;99.90
4643;DHT22;2334;48.710;9.622;2023-02-28T09:43:14;1.10;99.90
4643;DHT22;2334;48.710;9.622;2023-02-28T09:45:48;1.10;99.90
4643;DHT22;2334;48.710;9.622;2023-02-28T09:48:20;1.10;99.90
4643;DHT22;2334;48.710;9.622;2023-02-28T09:50:50;1.30;99.90
4643;DHT22;2334;48.710;9.622;2023-02-28T09:53:22;1.40;99.90
4643;DHT22;2334;48.710;9.622;2023-02-28T09:55:56;1.50;99.90
4643;DHT22;2334;48.710;9.622;2023-02-28T09:58:34;1.50;99.90
4643;DHT22;2334;48.710;9.622;2023-02-28T10:01:09;1.50;99.90
4643;DHT22;2334;48.710;9.622;2023-02-28T10:03:43;1.50;99.90
4643;DHT22;2334;48.710;9.622;2023-02-28T10:06:16;1.60;99.90
4643;DHT22;2334;48.710;9.622;2023-02-28T10:08:52;1.50;99.90
4643;DHT22;2334;48.710;9.622;2023-02-28T10:11:23;1.50;99.90
4643;DHT22;2334;48.710;9.622;2023-02-28T10:13:54;1.40;99.90
4643;DHT22;2334;48.710;9.622;2023-02-28T10:16:31;1.50;99.90
4643;DHT22;2334;48.710;9.622;2023-02-28T10:19:04;1.60;99.90
4643;DHT22;2334;48.710;9.622;2023-02-28T10:21:35;1.70;99.90
4643;DHT22;2334;48.710;9.622;2023-02-28T10:24:12;1.60;99.90
4643;DHT22;2334;48.710;9.622;2023-02-28T10:26:44;1.70;99.90
4643;DHT22;2334;48.710;9.622;2023-02-28T10:29:12;1.90;99.90
4643;DHT22;2334;48.710;9.622;2023-02-28T10:31:39;2.00;99.90
4643;DHT22;2334;48.710;9.622;2023-02-28T10:34:12;2.10;99.90
4643;DHT22;2334;48.710;9.622;2023-02-28T10:36:40;2.10;99.90
4643;DHT22;2334;48.710;9.622;2023-02-28T10:39:37;2.30;99.90
4643;DHT22;2334;48.710;9.622;2023-02-28T10:42:05;2.20;99.90
4643;DHT22;2334;48.710;9.622;2023-02-28T10:44:44;2.30;99.90
4643;DHT22;2334;48.710;9.622;2023-02-28T10:47:14;2.40;99.90
4643;DHT22;2334;48.710;9.622;2023-02-28T10:49:48;2.40;99.90
4643;DHT22;2334;48.710;9.622;2023-02-28T10:52:33;2.50;99.90
4643;DHT22;2334;48.710;9.622;2023-02-28T10:55:15;2.50;99.90
4643;DHT22;2334;48.710;9.622;2023-02-28T10:57:45;2.70;99.90
4643;DHT22;2334;48.710;9.622;2023-02-28T11:00:16;2.70;99.90
4643;DHT22;2334;48.710;9.622;2023-02-28T11:02:45;2.80;99.90
4643;DHT22;2334;48.710;9.622;2023-02-28T11:05:29;2.90;99.90
4643;DHT22;2334;48.710;9.622;2023-02-28T11:08:02;2.90;99.90
4643;DHT22;2334;48.710;9.622;2023-02-28T11:10:31;3.00;99.90
4643;DHT22;2334;48.710;9.622;2023-02-28T11:13:00;3.00;99.90
4643;DHT22;2334;48.710;9.622;2023-02-28T11:15:29;3.00;99.90
4643;DHT22;2334;48.710;9.622;2023-02-28T11:17:58;3.20;99.90
4643;DHT22;2334;48.710;9.622;2023-02-28T11:20:29;3.40;99.90
4643;DHT22;2334;48.710;9.622;2023-02-28T11:22:58;3.40;99.90
4643;DHT22;2334;48.710;9.622;2023-02-28T11:25:28;3.30;99.90
4643;DHT22;2334;48.710;9.622;2023-02-28T11:27:57;3.30;99.90
4643;DHT22;2334;48.710;9.622;2023-02-28T11:30:32;3.60;99.90
4643;DHT22;2334;48.710;9.622;2023-02-28T11:33:00;3.90;99.90
4643;DHT22;2334;48.710;9.622;2023-02-28T11:35:33;4.30;99.90
4643;DHT22;2334;48.710;9.622;2023-02-28T11:38:01;4.60;99.90
4643;DHT22;2334;48.710;9.622;2023-02-28T11:40:36;4.90;99.90
4643;DHT22;2334;48.710;9.622;2023-02-28T11:43:19;5.30;99.90
4643;DHT22;2334;48.710;9.622;2023-02-28T11:46:00;5.60;99.90
4643;DHT22;2334;48.710;9.622;2023-02-28T11:48:34;5.50;99.90
4643;DHT22;2334;48.710;9.622;2023-02-28T11:51:14;5.30;99.90
4643;DHT22;2334;48.710;9.622;2023-02-28T11:53:56;5.20;99.90
4643;DHT22;2334;48.710;9.622;2023-02-28T11:56:32;5.20;99.90
4643;DHT22;2334;48.710;9.622;2023-02-28T11:59:19;5.30;99.90
4643;DHT22;2334;48.710;9.622;2023-02-28T12:02:16;5.50;99.90
4643;DHT22;2334;48.710;9.622;2023-02-28T12:04:52;5.60;99.90
4643;DHT22;2334;48.710;9.622;2023-02-28T12:07:29;5.70;99.90
4643;DHT22;2334;48.710;9.622;2023-02-28T12:10:04;5.80;99.90
4643;DHT22;2334;48.710;9.622;2023-02-28T12:12:41;5.70;99.90
4643;DHT22;2334;48.710;9.622;2023-02-28T12:15:43;5.70;99.90
4643;DHT22;2334;48.710;9.622;2023-02-28T12:18:30;5.80;99.90
4643;DHT22;2334;48.710;9.622;2023-02-28T12:21:08;6.10;99.90
4643;DHT22;2334;48.710;9.622;2023-02-28T12:24:03;6.40;99.90
4643;DHT22;2334;48.710;9.622;2023-02-28T12:26:37;6.40;99.90
4643;DHT22;2334;48.710;9.622;2023-02-28T12:29:12;6.30;99.90
4643;DHT22;2334;48.710;9.622;2023-02-28T12:31:43;6.30;99.90
4643;DHT22;2334;48.710;9.622;2023-02-28T12:34:15;6.40;99.90
4643;DHT22;2334;48.710;9.622;2023-02-28T12:36:46;6.50;99.90
4643;DHT22;2334;48.710;9.622;2023-02-28T12:39:19;6.60;99.90
4643;DHT22;2334;48.710;9.622;2023-02-28T12:41:51;6.70;99.90
4643;DHT22;2334;48.710;9.622;2023-02-28T12:44:24;6.80;99.90
4643;DHT22;2334;48.710;9.622;2023-02-28T12:46:56;6.60;99.90
4643;DHT22;2334;48.710;9.622;2023-02-28T12:49:29;6.50;99.90
4643;DHT22;2334;48.710;9.622;2023-02-28T12:51:59;6.60;99.90
4643;DHT22;2334;48.710;9.622;2023-02-28T12:54:32;6.70;99.90
4643;DHT22;2334;48.710;9.622;2023-02-28T12:57:08;6.70;99.90
4643;DHT22;2334;48.710;9.622;2023-02-28T12:59:39;6.70;99.90
4643;DHT22;2334;48.710;9.622;2023-02-28T13:02:32;6.70;99.90
4643;DHT22;2334;48.710;9.622;2023-02-28T13:05:14;6.50;99.90
4643;DHT22;2334;48.710;9.622;2023-02-28T13:08:11;6.50;99.90
4643;DHT22;2334;48.710;9.622;2023-02-28T13:10:45;6.40;99.90
4643;DHT22;2334;48.710;9.622;2023-02-28T13:13:15;6.30;99.90
4643;DHT22;2334;48.710;9.622;2023-02-28T13:15:58;6.30;99.90
4643;DHT22;2334;48.710;9.622;2023-02-28T13:18:31;6.40;99.90
4643;DHT22;2334;48.710;9.622;2023-02-28T13:20:59;6.40;99.90
4643;DHT22;2334;48.710;9.622;2023-02-28T13:23:40;6.30;99.90
4643;DHT22;2334;48.710;9.622;2023-02-28T13:26:08;6.30;99.90
4643;DHT22;2334;48.710;9.622;2023-02-28T13:28:59;6.30;99.90
4643;DHT22;2334;48.710;9.622;2023-02-28T13:31:27;6.40;99.90
4643;DHT22;2334;48.710;9.622;2023-02-28T13:34:14;6.50;99.90
4643;DHT22;2334;48.710;9.622;2023-02-28T13:36:41;6.60;99.90
4643;DHT22;2334;48.710;9.622;2023-02-28T13:42:34;6.40;99.90
4643;DHT22;2334;48.710;9.622;2023-02-28T13:45:23;6.40;99.90
4643;DHT22;2334;48.710;9.622;2023-02-28T13:47:56;6.60;99.90
4643;DHT22;2334;48.710;9.622;2023-02-28T13:50:30;6.50;99.90
4643;DHT22;2334;48.710;9.622;2023-02-28T13:53:28;6.50;99.90
4643;DHT22;2334;48.710;9.622;2023-02-28T13:56:03;6.40;99.90
4643;DHT22;2334;48.710;9.622;2023-02-28T13:58:48;6.40;99.90
4643;DHT22;2334;48.710;9.622;2023-02-28T14:01:31;6.50;99.90
4643;DHT22;2334;48.710;9.622;2023-02-28T14:07:04;6.40;99.90
4643;DHT22;2334;48.710;9.622;2023-02-28T14:09:34;6.50;99.90
4643;DHT22;2334;48.710;9.622;2023-02-28T14:15:17;6.40;99.90
4643;DHT22;2334;48.710;9.622;2023-02-28T14:17:52;6.30;99.90
4643;DHT22;2334;48.710;9.622;2023-02-28T14:20:20;6.30;99.90
4643;DHT22;2334;48.710;9.622;2023-02-28T14:22:56;6.30;99.90
4643;DHT22;2334;48.710;9.622;2023-02-28T14:25:32;6.30;99.90
4643;DHT22;2334;48.710;9.622;2023-02-28T14:28:12;6.40;99.90
4643;DHT22;2334;48.710;9.622;2023-02-28T14:30:57;6.30;99.90
4643;DHT22;2334;48.710;9.622;2023-02-28T14:33:34;6.20;99.90
4643;DHT22;2334;48.710;9.622;2023-02-28T14:36:10;6.20;99.90
4643;DHT22;2334;48.710;9.622;2023-02-28T14:38:43;6.10;99.90
4643;DHT22;2334;48.710;9.622;2023-02-28T14:41:20;6.00;99.90
4643;DHT22;2334;48.710;9.622;2023-02-28T14:43:50;5.90;99.90
4643;DHT22;2334;48.710;9.622;2023-02-28T14:46:20;6.00;99.90
4643;DHT22;2334;48.710;9.622;2023-02-28T14:48:48;6.10;99.90
4643;DHT22;2334;48.710;9.622;2023-02-28T14:51:19;6.20;99.90
4643;DHT22;2334;48.710;9.622;2023-02-28T14:53:50;6.10;99.90
4643;DHT22;2334;48.710;9.622;2023-02-28T14:56:23;6.10;99.90
4643;DHT22;2334;48.710;9.622;2023-02-28T14:58:55;6.10;99.90
4643;DHT22;2334;48.710;9.622;2023-02-28T15:01:25;6.00;99.90
4643;DHT22;2334;48.710;9.622;2023-02-28T15:04:00;5.90;99.90
4643;DHT22;2334;48.710;9.622;2023-02-28T15:06:28;5.80;99.90
4643;DHT22;2334;48.710;9.622;2023-02-28T15:09:14;5.80;99.90
4643;DHT22;2334;48.710;9.622;2023-02-28T15:11:44;5.80;99.90
4643;DHT22;2334;48.710;9.622;2023-02-28T15:14:17;5.90;99.90
4643;DHT22;2334;48.710;9.622;2023-02-28T15:16:50;5.90;99.90
4643;DHT22;2334;48.710;9.622;2023-02-28T15:19:21;5.80;99.90
4643;DHT22;2334;48.710;9.622;2023-02-28T15:21:55;5.60;99.90
4643;DHT22;2334;48.710;9.622;2023-02-28T15:24:34;5.50;99.90
4643;DHT22;2334;48.710;9.622;2023-02-28T15:27:04;5.50;99.90
4643;DHT22;2334;48.710;9.622;2023-02-28T15:29:41;5.50;99.90
4643;DHT22;2334;48.710;9.622;2023-02-28T15:32:23;5.50;99.90
4643;DHT22;2334;48.710;9.622;2023-02-28T15:34:51;5.50;99.90
4643;DHT22;2334;48.710;9.622;2023-02-28T15:37:38;5.40;99.90
4643;DHT22;2334;48.710;9.622;2023-02-28T15:40:13;5.40;99.90
4643;DHT22;2334;48.710;9.622;2023-02-28T15:42:40;5.40;99.90
4643;DHT22;2334;48.710;9.622;2023-02-28T15:45:27;5.30;99.90
4643;DHT22;2334;48.710;9.622;2023-02-28T15:47:57;5.20;99.90
4643;DHT22;2334;48.710;9.622;2023-02-28T15:50:24;5.10;99.90
4643;DHT22;2334;48.710;9.622;2023-02-28T15:52:54;5.00;99.90
4643;DHT22;2334;48.710;9.622;2023-02-28T15:55:22;5.00;99.90
4643;DHT22;2334;48.710;9.622;2023-02-28T15:57:52;4.90;99.90
4643;DHT22;2334;48.710;9.622;2023-02-28T16:00:22;4.90;99.90
4643;DHT22;2334;48.710;9.622;2023-02-28T16:02:49;4.80;99.90
4643;DHT22;2334;48.710;9.622;2023-02-28T16:05:24;4.80;99.90
4643;DHT22;2334;48.710;9.622;2023-02-28T16:07:57;4.70;99.90
4643;DHT22;2334;48.710;9.622;2023-02-28T16:10:25;4.70;99.90
4643;DHT22;2334;48.710;9.622;2023-02-28T16:12:54;4.60;99.90
4643;DHT22;2334;48.710;9.622;2023-02-28T16:15:23;4.60;99.90
4643;DHT22;2334;48.710;9.622;2023-02-28T16:17:52;4.60;99.90
4643;DHT22;2334;48.710;9.622;2023-02-28T16:20:22;4.50;99.90
4643;DHT22;2334;48.710;9.622;2023-02-28T16:22:49;4.50;99.90
4643;DHT22;2334;48.710;9.622;2023-02-28T16:25:18;4.40;99.90
4643;DHT22;2334;48.710;9.622;2023-02-28T16:27:48;4.30;99.90
4643;DHT22;2334;48.710;9.622;2023-02-28T16:30:19;4.30;99.90
4643;DHT22;2334;48.710;9.622;2023-02-28T16:32:47;4.20;99.90
4643;DHT22;2334;48.710;9.622;2023-02-28T16:35:14;4.20;99.90
4643;DHT22;2334;48.710;9.622;2023-02-28T16:37:42;4.10;99.90
4643;DHT22;2334;48.710;9.622;2023-02-28T16:40:14;4.10;99.90
4643;DHT22;2334;48.710;9.622;2023-02-28T16:42:41;4.00;99.90
4643;DHT22;2334;48.710;9.622;2023-02-28T16:45:15;4.00;99.90
4643;DHT22;2334;48.710;9.622;2023-02-28T16:47:43;3.90;99.90
4643;DHT22;2334;48.710;9.622;2023-02-28T16:50:14;3.80;99.90
4643;DHT22;2334;48.710;9.622;2023-02-28T16:52:43;3.70;99.90